createdAt,value
2023-07-10T00:01:03.311Z,8.05
2023-07-10T00:03:30.284Z,6.85
2023-07-10T00:06:00.805Z,9.02
2023-07-10T00:08:28.114Z,11.23
2023-07-10T00:10:55.133Z,6.93
2023-07-10T00:13:23.287Z,9.80
2023-07-10T00:15:52.057Z,8.75
2023-07-10T00:18:22.034Z,11.80
2023-07-10T00:20:54.636Z,8.80
2023-07-10T00:23:21.600Z,8.80
2023-07-10T00:25:48.710Z,9.30
2023-07-10T00:28:20.576Z,7.85
2023-07-10T00:30:49.995Z,7.43
2023-07-10T00:33:20.635Z,8.63
2023-07-10T00:35:48.856Z,6.88
2023-07-10T00:38:30.585Z,9.35
2023-07-10T00:41:06.846Z,8.43
2023-07-10T00:43:39.043Z,14.63
2023-07-10T00:46:18.552Z,7.28
2023-07-10T00:48:52.124Z,12.75
2023-07-10T00:51:27.706Z,7.53
2023-07-10T00:53:56.705Z,8.73
2023-07-10T00:56:24.642Z,10.15
2023-07-10T00:58:51.731Z,9.82
2023-07-10T01:01:21.114Z,8.35
2023-07-10T01:03:51.145Z,8.05
2023-07-10T01:06:20.439Z,7.78
2023-07-10T01:09:04.136Z,9.60
2023-07-10T01:11:35.908Z,8.07
2023-07-10T01:14:05.862Z,10.43
2023-07-10T01:16:33.950Z,10.18
2023-07-10T01:19:00.916Z,7.97
2023-07-10T01:21:34.201Z,7.93
2023-07-10T01:24:05.881Z,8.82
2023-07-10T01:26:36.313Z,11.38
2023-07-10T01:29:03.582Z,8.50
2023-07-10T01:31:31.789Z,7.72
2023-07-10T01:34:03.090Z,9.68
2023-07-10T01:36:37.147Z,9.93
2023-07-10T01:39:27.871Z,8.48
2023-07-10T01:41:54.521Z,7.97
2023-07-10T01:44:27.367Z,10.10
2023-07-10T01:46:56.897Z,8.82
2023-07-10T01:49:58.704Z,8.52
2023-07-10T01:52:26.397Z,11.35
2023-07-10T01:54:56.760Z,9.43
2023-07-10T01:57:25.390Z,9.88
2023-07-10T01:59:53.772Z,9.40
2023-07-10T02:02:21.770Z,8.50
2023-07-10T02:04:49.240Z,8.82
2023-07-10T02:07:16.179Z,8.48
2023-07-10T02:09:42.770Z,9.50
2023-07-10T02:12:10.509Z,11.07
2023-07-10T02:14:37.049Z,8.23
2023-07-10T02:17:04.190Z,8.95
2023-07-10T02:19:30.966Z,7.90
2023-07-10T02:21:59.023Z,11.23
2023-07-10T02:24:26.446Z,8.93
2023-07-10T02:26:53.853Z,9.25
2023-07-10T02:29:21.487Z,8.27
2023-07-10T02:31:51.119Z,10.55
2023-07-10T02:34:17.883Z,9.48
2023-07-10T02:36:45.805Z,11.10
2023-07-10T02:39:13.099Z,9.02
2023-07-10T02:41:40.453Z,9.30
2023-07-10T02:44:07.501Z,9.05
2023-07-10T02:46:34.210Z,10.35
2023-07-10T02:49:01.398Z,9.68
2023-07-10T02:51:30.436Z,8.93
2023-07-10T02:53:57.043Z,9.52
2023-07-10T02:56:23.712Z,7.82
2023-07-10T02:58:53.623Z,9.13
2023-07-10T03:01:27.724Z,10.88
2023-07-10T03:03:55.438Z,10.07
2023-07-10T03:06:24.728Z,9.02
2023-07-10T03:08:51.706Z,9.27
2023-07-10T03:11:18.485Z,8.73
2023-07-10T03:13:45.526Z,8.57
2023-07-10T03:16:14.726Z,10.80
2023-07-10T03:18:41.760Z,9.02
2023-07-10T03:21:10.862Z,7.70
2023-07-10T03:23:38.538Z,9.07
2023-07-10T03:26:06.425Z,7.47
2023-07-10T03:28:38.354Z,10.50
2023-07-10T03:31:08.252Z,9.75
2023-07-10T03:33:36.123Z,9.57
2023-07-10T03:36:10.848Z,8.63
2023-07-10T03:38:37.739Z,9.02
2023-07-10T03:41:04.437Z,9.40
2023-07-10T03:43:31.121Z,9.68
2023-07-10T03:45:58.058Z,9.18
2023-07-10T03:48:26.255Z,9.13
2023-07-10T03:50:52.787Z,10.35
2023-07-10T03:53:20.060Z,10.40
2023-07-10T03:55:54.193Z,9.35
2023-07-10T03:58:29.840Z,9.18
2023-07-10T04:01:01.422Z,9.77
2023-07-10T04:03:34.677Z,10.85
2023-07-10T04:06:06.991Z,10.30
2023-07-10T04:08:39.409Z,9.77
2023-07-10T04:11:20.768Z,9.35
2023-07-10T04:13:49.594Z,9.55
2023-07-10T04:16:25.584Z,10.98
2023-07-10T04:18:54.016Z,10.20
2023-07-10T04:21:23.624Z,11.23
2023-07-10T04:23:50.776Z,10.80
2023-07-10T04:26:21.635Z,9.43
2023-07-10T04:28:51.209Z,9.65
2023-07-10T04:31:19.146Z,10.55
2023-07-10T04:33:46.821Z,8.63
2023-07-10T04:36:14.251Z,10.32
2023-07-10T04:38:40.940Z,9.10
2023-07-10T04:41:11.577Z,10.45
2023-07-10T04:43:38.720Z,8.63
2023-07-10T04:46:11.307Z,10.88
2023-07-10T04:48:38.109Z,9.30
2023-07-10T04:51:09.142Z,9.60
2023-07-10T04:53:35.960Z,10.80
2023-07-10T04:56:08.195Z,8.82
2023-07-10T04:58:51.151Z,9.18
2023-07-10T05:01:19.756Z,10.70
2023-07-10T05:03:47.793Z,10.07
2023-07-10T05:06:15.227Z,11.50
2023-07-10T05:08:42.096Z,9.93
2023-07-10T05:11:09.191Z,10.15
2023-07-10T05:13:35.946Z,9.77
2023-07-10T05:16:03.437Z,9.82
2023-07-10T05:18:31.299Z,10.70
2023-07-10T05:21:00.973Z,10.55
2023-07-10T05:23:29.129Z,9.50
2023-07-10T05:26:05.355Z,11.27
2023-07-10T05:28:32.589Z,10.68
2023-07-10T05:31:03.249Z,8.60
2023-07-10T05:33:31.495Z,10.38
2023-07-10T05:36:01.237Z,8.75
2023-07-10T05:38:31.737Z,10.15
2023-07-10T05:41:01.540Z,9.85
2023-07-10T05:43:33.134Z,10.52
2023-07-10T05:46:00.415Z,9.35
2023-07-10T05:48:29.903Z,8.13
2023-07-10T05:50:57.684Z,9.32
2023-07-10T05:53:25.866Z,12.02
2023-07-10T05:55:57.299Z,9.75
2023-07-10T05:58:27.540Z,7.40
2023-07-10T06:00:57.250Z,7.65
2023-07-10T06:03:24.845Z,9.80
2023-07-10T06:06:01.420Z,10.77
2023-07-10T06:08:29.398Z,7.18
2023-07-10T06:10:56.770Z,10.63
2023-07-10T06:13:24.430Z,7.68
2023-07-10T06:15:53.734Z,7.32
2023-07-10T06:18:20.856Z,8.38
2023-07-10T06:21:00.869Z,9.68
2023-07-10T06:23:30.064Z,8.52
2023-07-10T06:25:57.420Z,6.22
2023-07-10T06:28:25.370Z,7.38
2023-07-10T06:31:08.120Z,7.18
2023-07-10T06:33:36.819Z,8.00
2023-07-10T06:36:06.201Z,7.32
2023-07-10T06:38:34.118Z,7.22
2023-07-10T06:41:00.808Z,9.18
2023-07-10T06:43:27.401Z,6.50
2023-07-10T06:45:57.172Z,9.35
2023-07-10T06:48:24.182Z,9.73
2023-07-10T06:50:52.705Z,6.97
2023-07-10T06:56:03.006Z,6.28
2023-07-10T06:58:34.514Z,9.07
2023-07-10T07:01:03.565Z,8.45
2023-07-10T07:03:31.147Z,8.85
2023-07-10T07:05:59.964Z,8.35
2023-07-10T07:08:26.595Z,6.10
2023-07-10T07:10:54.994Z,6.57
2023-07-10T07:13:22.740Z,8.23
2023-07-10T07:15:56.827Z,7.20
2023-07-10T07:18:27.838Z,6.63
2023-07-10T07:20:55.635Z,6.30
2023-07-10T07:23:22.457Z,5.93
2023-07-10T07:25:49.342Z,7.72
2023-07-10T07:28:16.059Z,7.10
2023-07-10T07:30:48.689Z,6.93
2023-07-10T07:33:20.951Z,7.95
2023-07-10T07:35:50.229Z,8.52
2023-07-10T07:38:18.190Z,6.35
2023-07-10T07:40:45.630Z,6.07
2023-07-10T07:43:12.525Z,9.30
2023-07-10T07:45:39.522Z,6.93
2023-07-10T07:48:06.606Z,6.40
2023-07-10T07:50:33.183Z,7.35
2023-07-10T07:53:00.103Z,6.45
2023-07-10T07:55:26.666Z,5.65
2023-07-10T07:57:53.523Z,6.30
2023-07-10T08:00:22.089Z,8.85
2023-07-10T08:02:50.721Z,7.47
2023-07-10T08:05:32.924Z,6.65
2023-07-10T08:08:01.772Z,8.32
2023-07-10T08:10:32.329Z,6.47
2023-07-10T08:12:59.116Z,7.88
2023-07-10T08:15:25.602Z,6.47
2023-07-10T08:17:52.216Z,7.88
2023-07-10T08:20:18.859Z,6.68
2023-07-10T08:22:46.027Z,6.95
2023-07-10T08:25:12.976Z,9.43
2023-07-10T08:27:40.481Z,8.52
2023-07-10T08:30:08.165Z,6.32
2023-07-10T08:32:35.386Z,6.47
2023-07-10T08:35:02.975Z,7.43
2023-07-10T08:37:29.735Z,7.05
2023-07-10T08:39:59.270Z,7.75
2023-07-10T08:42:31.611Z,6.78
2023-07-10T08:45:00.664Z,8.65
2023-07-10T08:47:38.658Z,6.80
2023-07-10T08:50:19.781Z,6.95
2023-07-10T08:53:05.316Z,6.60
2023-07-10T08:55:52.372Z,6.57
2023-07-10T08:58:22.802Z,6.20
2023-07-10T09:00:53.786Z,5.80
2023-07-10T09:03:39.907Z,7.82
2023-07-10T09:06:21.653Z,8.25
2023-07-10T09:08:55.354Z,7.05
2023-07-10T09:11:24.305Z,6.00
2023-07-10T09:13:57.339Z,7.85
2023-07-10T09:16:25.215Z,6.15
2023-07-10T09:19:02.761Z,6.07
2023-07-10T09:21:36.204Z,6.82
2023-07-10T09:24:07.031Z,6.32
2023-07-10T09:26:40.761Z,5.60
2023-07-10T09:29:15.636Z,5.78
2023-07-10T09:32:17.969Z,7.30
2023-07-10T09:34:52.695Z,6.25
2023-07-10T09:37:22.240Z,6.38
2023-07-10T09:39:49.686Z,4.72
2023-07-10T09:42:19.965Z,4.32
2023-07-10T09:44:54.348Z,5.05
2023-07-10T09:47:23.023Z,6.43
2023-07-10T09:49:56.222Z,5.25
2023-07-10T09:52:29.195Z,5.55
2023-07-10T09:55:12.730Z,5.45
2023-07-10T09:58:05.842Z,5.53
2023-07-10T10:00:35.653Z,6.57
2023-07-10T10:03:14.893Z,7.25
2023-07-10T10:05:43.782Z,6.72
2023-07-10T10:08:28.727Z,6.95
2023-07-10T10:11:08.866Z,5.57
2023-07-10T10:13:43.417Z,6.22
2023-07-10T10:16:30.123Z,5.22
2023-07-10T10:19:03.315Z,5.50
2023-07-10T10:21:36.682Z,6.38
2023-07-10T10:24:08.771Z,5.95
2023-07-10T10:26:56.775Z,7.22
2023-07-10T10:29:36.144Z,6.20
2023-07-10T10:32:27.606Z,6.68
2023-07-10T10:35:11.156Z,5.35
2023-07-10T10:38:05.050Z,5.53
2023-07-10T10:40:40.843Z,5.40
2023-07-10T10:43:32.880Z,6.85
2023-07-10T10:46:23.479Z,6.47
2023-07-10T10:49:13.388Z,6.82
2023-07-10T10:52:06.063Z,6.78
2023-07-10T10:54:36.772Z,7.03
2023-07-10T10:57:40.443Z,6.53
2023-07-10T11:00:24.332Z,6.50
2023-07-10T11:02:56.669Z,8.10
2023-07-10T11:05:33.606Z,7.22
2023-07-10T11:08:05.416Z,7.20
2023-07-10T11:10:38.872Z,6.15
2023-07-10T11:13:10.375Z,7.00
2023-07-10T11:15:37.041Z,7.10
2023-07-10T11:18:04.716Z,7.85
2023-07-10T11:20:31.611Z,7.15
2023-07-10T11:23:01.621Z,6.65
2023-07-10T11:25:32.714Z,6.15
2023-07-10T11:28:05.341Z,4.07
2023-07-10T11:30:35.051Z,4.13
2023-07-10T11:33:18.031Z,4.07
2023-07-10T11:36:19.258Z,4.25
2023-07-10T11:39:09.060Z,3.97
2023-07-10T11:41:38.459Z,3.97
2023-07-10T11:44:32.495Z,6.45
2023-07-10T11:47:06.627Z,3.70
2023-07-10T11:49:36.664Z,4.43
2023-07-10T11:52:29.828Z,4.78
2023-07-10T11:55:04.094Z,4.45
2023-07-10T11:57:34.631Z,5.13
2023-07-10T12:00:05.143Z,4.15
2023-07-10T12:02:49.949Z,3.88
2023-07-10T12:05:42.566Z,4.55
2023-07-10T12:08:09.232Z,4.53
2023-07-10T12:10:53.808Z,4.28
2023-07-10T12:13:32.875Z,4.18
2023-07-10T12:16:09.765Z,4.68
2023-07-10T12:18:40.064Z,3.80
2023-07-10T12:21:24.301Z,4.10
2023-07-10T12:23:55.564Z,3.92
2023-07-10T12:26:44.407Z,4.38
2023-07-10T12:29:15.492Z,4.00
2023-07-10T12:31:43.558Z,4.15
2023-07-10T12:34:26.947Z,3.83
2023-07-10T12:36:59.618Z,3.72
2023-07-10T12:39:26.913Z,3.72
2023-07-10T12:41:56.392Z,4.53
2023-07-10T12:44:29.148Z,5.82
2023-07-10T12:47:06.336Z,3.97
2023-07-10T12:49:36.195Z,3.60
2023-07-10T12:52:10.036Z,3.10
2023-07-10T12:54:44.315Z,4.13
2023-07-10T12:57:18.130Z,4.05
2023-07-10T12:59:48.045Z,3.45
2023-07-10T13:02:23.880Z,4.15
2023-07-10T13:05:00.312Z,5.57
2023-07-10T13:07:36.649Z,3.38
2023-07-10T13:10:28.761Z,3.38
2023-07-10T13:13:02.056Z,3.40
2023-07-10T13:15:36.056Z,3.63
2023-07-10T13:18:03.208Z,5.38
2023-07-10T13:20:31.419Z,3.28
2023-07-10T13:23:00.471Z,3.35
2023-07-10T13:25:31.662Z,4.22
2023-07-10T13:27:58.280Z,3.45
2023-07-10T13:30:25.497Z,4.65
2023-07-10T13:32:53.527Z,3.10
2023-07-10T13:35:21.659Z,3.63
2023-07-10T13:37:48.219Z,3.22
2023-07-10T13:40:22.578Z,5.20
2023-07-10T13:42:50.182Z,3.85
2023-07-10T13:45:16.802Z,4.07
2023-07-10T13:47:43.544Z,3.40
2023-07-10T13:50:16.096Z,3.63
2023-07-10T13:52:43.274Z,3.40
2023-07-10T13:55:15.441Z,4.32
2023-07-10T13:57:44.280Z,3.10
2023-07-10T14:00:14.625Z,3.75
2023-07-10T14:02:41.487Z,3.22
2023-07-10T14:05:12.990Z,3.08
2023-07-10T14:07:41.331Z,3.38
2023-07-10T14:10:10.307Z,3.83
2023-07-10T14:12:39.171Z,2.90
2023-07-10T14:15:06.223Z,2.80
2023-07-10T14:17:34.911Z,2.78
2023-07-10T14:20:10.622Z,3.25
2023-07-10T14:22:37.117Z,3.33
2023-07-10T14:25:05.407Z,3.20
2023-07-10T14:27:32.488Z,3.58
2023-07-10T14:30:01.375Z,5.03
2023-07-10T14:32:28.420Z,2.92
2023-07-10T14:34:55.067Z,2.88
2023-07-10T14:37:28.452Z,3.45
2023-07-10T14:39:55.293Z,3.60
2023-07-10T14:42:25.190Z,3.22
2023-07-10T14:44:52.527Z,3.67
2023-07-10T14:47:19.717Z,2.83
2023-07-10T14:49:47.814Z,2.92
2023-07-10T14:52:31.756Z,3.33
2023-07-10T14:55:01.341Z,3.10
2023-07-10T14:57:31.014Z,3.97
2023-07-10T14:59:59.665Z,4.13
2023-07-10T15:02:27.631Z,2.85
2023-07-10T15:04:55.326Z,3.45
2023-07-10T15:07:23.215Z,2.90
2023-07-10T15:09:50.793Z,3.45
2023-07-10T15:12:21.091Z,3.90
2023-07-10T15:14:50.939Z,2.88
2023-07-10T15:17:26.449Z,3.25
2023-07-10T15:19:58.389Z,3.58
2023-07-10T15:22:25.037Z,5.55
2023-07-10T15:24:52.708Z,3.38
2023-07-10T15:27:20.885Z,3.40
2023-07-10T15:29:47.475Z,5.07
2023-07-10T15:32:20.498Z,4.90
2023-07-10T15:34:50.105Z,4.05
2023-07-10T15:37:24.437Z,3.50
2023-07-10T15:39:51.377Z,3.03
2023-07-10T15:42:19.848Z,5.25
2023-07-10T15:44:48.018Z,2.72
2023-07-10T15:47:20.172Z,2.67
2023-07-10T15:49:47.229Z,4.05
2023-07-10T15:52:30.724Z,3.17
2023-07-10T15:55:23.508Z,4.20
2023-07-10T15:57:51.863Z,4.40
2023-07-10T16:00:27.840Z,3.85
2023-07-10T16:02:56.617Z,3.40
2023-07-10T16:05:26.437Z,2.65
2023-07-10T16:07:54.979Z,4.63
2023-07-10T16:10:23.718Z,3.47
2023-07-10T16:12:56.229Z,3.17
2023-07-10T16:15:28.239Z,3.22
2023-07-10T16:17:58.862Z,3.47
2023-07-10T16:20:28.533Z,3.05
2023-07-10T16:23:05.666Z,5.05
2023-07-10T16:25:33.781Z,3.60
2023-07-10T16:28:01.431Z,4.50
2023-07-10T16:30:28.666Z,5.28
2023-07-10T16:32:56.788Z,4.97
2023-07-10T16:35:25.649Z,3.65
2023-07-10T16:37:53.728Z,3.50
2023-07-10T16:40:26.511Z,3.47
2023-07-10T16:42:56.163Z,5.53
2023-07-10T16:45:26.345Z,3.42
2023-07-10T16:47:53.374Z,3.08
2023-07-10T16:50:22.124Z,3.00
2023-07-10T16:52:51.808Z,2.60
2023-07-10T16:55:27.137Z,3.40
2023-07-10T16:57:55.724Z,3.05
2023-07-10T17:00:30.400Z,2.95
2023-07-10T17:03:02.601Z,2.85
2023-07-10T17:05:41.588Z,3.00
2023-07-10T17:08:20.371Z,2.75
2023-07-10T17:10:48.001Z,3.88
2023-07-10T17:13:21.930Z,3.17
2023-07-10T17:16:32.648Z,3.67
2023-07-10T17:18:58.807Z,4.15
2023-07-10T17:21:28.002Z,3.13
2023-07-10T17:23:55.038Z,4.22
2023-07-10T17:26:22.490Z,4.05
2023-07-10T17:28:49.681Z,3.30
2023-07-10T17:31:32.390Z,2.83
2023-07-10T17:34:03.613Z,3.10
2023-07-10T17:36:30.961Z,3.70
2023-07-10T17:39:09.162Z,3.92
2023-07-10T17:41:43.563Z,3.38
2023-07-10T17:44:19.187Z,3.78
2023-07-10T17:46:47.379Z,4.10
2023-07-10T17:49:15.619Z,6.47
2023-07-10T17:51:42.447Z,3.42
2023-07-10T17:54:18.238Z,3.45
2023-07-10T17:56:46.842Z,3.47
2023-07-10T17:59:14.515Z,3.55
2023-07-10T18:01:43.231Z,4.88
2023-07-10T18:04:16.959Z,4.55
2023-07-10T18:06:45.058Z,3.80
2023-07-10T18:09:28.145Z,3.10
2023-07-10T18:11:56.734Z,4.07
2023-07-10T18:14:23.839Z,3.85
2023-07-10T18:16:51.640Z,4.35
2023-07-10T18:19:19.842Z,2.42
2023-07-10T18:21:52.764Z,3.22
2023-07-10T18:24:24.395Z,3.10
2023-07-10T18:26:52.499Z,3.10
2023-07-10T18:29:19.119Z,3.00
2023-07-10T18:31:47.915Z,3.28
2023-07-10T18:34:19.127Z,2.70
2023-07-10T18:36:46.317Z,4.10
2023-07-10T18:39:16.384Z,3.72
2023-07-10T18:41:44.653Z,3.65
2023-07-10T18:44:17.057Z,3.10
2023-07-10T18:46:47.632Z,3.13
2023-07-10T18:49:20.526Z,2.88
2023-07-10T18:51:49.139Z,4.22
2023-07-10T18:54:19.373Z,5.03
2023-07-10T18:56:46.348Z,3.42
2023-07-10T18:59:21.332Z,3.78
2023-07-10T19:01:52.821Z,3.42
2023-07-10T19:04:21.231Z,3.22
2023-07-10T19:06:51.540Z,3.60
2023-07-10T19:09:20.095Z,3.35
2023-07-10T19:11:47.417Z,3.28
2023-07-10T19:14:23.396Z,5.53
2023-07-10T19:16:52.001Z,3.10
2023-07-10T19:19:23.322Z,4.70
2023-07-10T19:21:53.167Z,3.72
2023-07-10T19:24:23.016Z,4.40
2023-07-10T19:26:49.832Z,4.60
2023-07-10T19:29:17.921Z,3.38
2023-07-10T19:32:00.650Z,5.15
2023-07-10T19:34:28.722Z,4.40
2023-07-10T19:36:55.562Z,3.30
2023-07-10T19:39:26.018Z,3.85
2023-07-10T19:41:52.969Z,5.03
2023-07-10T19:44:23.555Z,5.40
2023-07-10T19:46:50.922Z,3.80
2023-07-10T19:49:24.966Z,4.88
2023-07-10T19:51:51.589Z,3.70
2023-07-10T19:54:24.837Z,5.05
2023-07-10T19:56:51.943Z,5.03
2023-07-10T19:59:21.101Z,3.63
2023-07-10T20:01:51.360Z,3.33
2023-07-10T20:04:18.292Z,3.55
2023-07-10T20:06:48.746Z,3.50
2023-07-10T20:09:19.436Z,4.30
2023-07-10T20:11:47.520Z,4.10
2023-07-10T20:14:18.575Z,4.65
2023-07-10T20:17:01.123Z,5.55
2023-07-10T20:19:30.864Z,4.85
2023-07-10T20:21:57.630Z,5.15
2023-07-10T20:24:27.301Z,5.30
2023-07-10T20:26:54.413Z,3.95
2023-07-10T20:29:22.190Z,3.83
2023-07-10T20:31:49.518Z,4.18
2023-07-10T20:34:17.660Z,4.10
2023-07-10T20:36:45.772Z,4.72
2023-07-10T20:39:15.305Z,3.65
2023-07-10T20:41:43.635Z,4.25
2023-07-10T20:44:18.830Z,5.03
2023-07-10T20:46:53.513Z,5.32
2023-07-10T20:49:22.425Z,3.70
2023-07-10T20:51:49.360Z,4.18
2023-07-10T20:54:22.104Z,5.00
2023-07-10T20:56:52.234Z,4.43
2023-07-10T20:59:29.193Z,4.70
2023-07-10T21:01:57.119Z,4.05
2023-07-10T21:04:23.880Z,5.13
2023-07-10T21:07:02.516Z,3.88
2023-07-10T21:09:29.095Z,7.53
2023-07-10T21:11:55.829Z,4.28
2023-07-10T21:14:22.482Z,4.80
2023-07-10T21:16:49.747Z,5.90
2023-07-10T21:19:21.668Z,6.00
2023-07-10T21:21:49.517Z,4.45
2023-07-10T21:24:17.904Z,4.07
2023-07-10T21:26:51.731Z,4.55
2023-07-10T21:29:19.847Z,4.20
2023-07-10T21:31:48.411Z,5.35
2023-07-10T21:34:15.424Z,6.13
2023-07-10T21:36:43.841Z,4.10
2023-07-10T21:39:10.683Z,4.05
2023-07-10T21:41:40.859Z,4.13
2023-07-10T21:44:13.184Z,4.80
2023-07-10T21:46:41.266Z,4.85
2023-07-10T21:49:13.785Z,5.25
2023-07-10T21:51:42.144Z,5.28
2023-07-10T21:54:11.608Z,4.18
2023-07-10T21:56:41.324Z,5.03
2023-07-10T21:59:20.808Z,5.75
2023-07-10T22:01:47.961Z,6.07
2023-07-10T22:04:14.947Z,5.30
2023-07-10T22:06:46.498Z,5.07
2023-07-10T22:09:14.825Z,4.10
2023-07-10T22:11:43.362Z,4.45
2023-07-10T22:14:18.494Z,4.68
2023-07-10T22:16:45.962Z,5.72
2023-07-10T22:19:14.160Z,4.63
2023-07-10T22:21:42.603Z,4.70
2023-07-10T22:24:20.167Z,4.25
2023-07-10T22:26:47.200Z,5.22
2023-07-10T22:29:14.069Z,4.22
2023-07-10T22:31:41.163Z,3.72
2023-07-10T22:34:08.379Z,4.13
2023-07-10T22:36:35.077Z,5.68
2023-07-10T22:39:02.083Z,5.00
2023-07-10T22:41:33.325Z,5.72
2023-07-10T22:44:05.328Z,5.90
2023-07-10T22:46:35.164Z,5.75
2023-07-10T22:49:05.327Z,4.55
2023-07-10T22:51:35.941Z,4.20
2023-07-10T22:54:04.803Z,5.60
2023-07-10T22:56:37.451Z,4.85
2023-07-10T22:59:04.624Z,5.88
2023-07-10T23:01:32.999Z,5.57
2023-07-10T23:04:01.116Z,4.65
2023-07-10T23:06:32.941Z,4.50
2023-07-10T23:09:00.069Z,6.55
2023-07-10T23:11:27.374Z,5.18
2023-07-10T23:13:54.191Z,4.72
2023-07-10T23:16:25.096Z,4.20
2023-07-10T23:18:56.113Z,5.10
2023-07-10T23:21:24.046Z,5.78
2023-07-10T23:23:51.171Z,4.78
2023-07-10T23:26:23.541Z,4.53
2023-07-10T23:28:51.099Z,5.22
2023-07-10T23:31:22.081Z,5.45
2023-07-10T23:33:52.498Z,6.35
2023-07-10T23:36:21.069Z,5.63
2023-07-10T23:38:48.374Z,5.30
2023-07-10T23:41:15.810Z,6.35
2023-07-10T23:43:42.606Z,4.90
2023-07-10T23:46:09.781Z,4.65
2023-07-10T23:48:36.863Z,6.55
2023-07-10T23:51:03.985Z,5.63
2023-07-10T23:53:31.030Z,4.28
2023-07-10T23:55:58.467Z,6.00
2023-07-10T23:58:28.174Z,6.63
